Date,TemperatureHighF,TemperatureAvgF,TemperatureLowF,DewpointHighF,DewpointAvgF,DewpointLowF,HumidityHigh,HumidityAvg,HumidityLow,PressureMaxIn,PressureMinIn,WindSpeedMaxMPH,WindSpeedAvgMPH,GustSpeedMaxMPH,PrecipitationSumIn
2013-1-1,17.0,10.4,4.0,8.0,1.0,-3.0,72,65,54,0.00,40.00,13,6,16,0.00
2013-1-2,33.0,19.5,6.0,20.0,9.7,-1.0,78,65,52,0.00,40.00,12,8,17,0.00
2013-1-3,29.0,22.0,10.0,24.0,14.2,4.0,82,71,59,0.00,40.00,19,12,26,0.00
2013-1-4,35.0,22.4,10.0,21.0,13.9,4.0,79,70,55,0.00,40.00,18,12,25,0.00
2013-1-5,36.0,30.4,21.0,32.0,24.7,16.0,85,79,63,0.00,40.00,20,11,30,0.13
2013-1-6,28.0,20.7,15.0,20.0,12.8,9.0,80,71,54,0.00,40.00,21,12,27,0.00
2013-1-7,40.0,29.8,17.0,24.0,18.4,10.0,74,63,43,0.00,40.00,20,10,27,15.92
2013-1-8,42.0,36.0,29.0,27.0,24.8,21.0,71,63,53,0.00,40.00,16,10,28,45.54
2013-1-9,44.0,36.4,31.0,30.0,27.2,24.0,83,70,52,0.00,40.00,21,10,26,32.24
2013-1-10,40.0,34.8,29.0,36.0,26.8,21.0,89,73,48,0.00,40.00,19,9,26,0.51
2013-1-11,54.0,46.3,38.0,48.0,41.2,35.0,89,83,64,0.00,40.00,18,11,29,0.00
2013-1-12,52.0,33.6,20.0,42.0,24.2,13.0,82,68,53,0.00,40.00,26,14,38,0.11
2013-1-13,20.0,15.3,10.0,15.0,6.0,3.0,82,65,58,0.00,40.00,19,13,27,0.01
2013-1-14,28.0,15.6,6.0,9.0,4.7,0.0,77,62,42,0.00,40.00,9,5,13,0.00
2013-1-15,31.0,20.4,12.0,13.0,7.6,4.0,75,58,36,0.00,40.00,9,4,12,0.00
2013-1-16,38.0,28.5,15.0,31.0,17.7,4.0,82,63,48,0.00,40.00,21,11,29,0.00
2013-1-17,35.0,26.4,20.0,31.0,15.2,7.0,82,63,39,0.00,40.00,16,11,20,0.00
2013-1-18,47.0,44.0,42.0,29.0,28.1,27.0,60,53,45,0.00,40.00,26,17,35,0.00
2013-1-19,51.0,40.6,21.0,32.0,27.4,5.0,69,59,44,0.00,40.00,36,17,47,0.00
2013-1-20,21.0,14.0,10.0,7.0,3.1,-1.0,70,61,51,0.00,40.00,27,15,40,0.01
2013-1-21,13.0,6.4,1.0,4.0,-4.7,-10.0,69,59,45,0.00,40.00,27,17,40,0.00
2013-1-22,14.0,7.2,-2.0,-1.0,-5.0,-10.0,71,57,45,0.00,40.00,16,9,22,0.00
2013-1-23,29.0,18.2,11.0,10.0,3.6,-3.0,60,52,43,0.00,40.00,28,12,35,0.00
2013-1-24,22.0,12.7,4.0,6.0,-2.6,-8.0,58,50,38,0.00,40.00,18,9,25,0.00
2013-1-25,36.0,24.8,14.0,16.0,10.5,3.0,77,54,38,0.00,40.00,24,13,30,0.00
2013-1-26,30.0,19.8,7.0,11.0,6.0,1.0,76,56,38,0.00,40.00,12,6,19,0.00
2013-1-27,43.0,32.6,28.0,40.0,24.0,11.0,89,72,47,0.00,40.00,21,11,29,0.63
2013-1-28,51.0,42.0,37.0,47.0,39.1,34.0,89,89,89,0.00,40.00,16,9,24,0.00
2013-1-29,61.0,50.1,35.0,56.0,46.4,32.0,89,87,81,0.00,40.00,19,11,29,2.32
2013-1-30,35.0,26.8,14.0,33.0,22.3,7.0,88,83,68,0.00,40.00,30,18,38,1.27
2013-1-31,14.0,6.8,0.0,7.0,-3.6,-10.0,71,61,57,0.00,40.00,27,21,35,0.00
2013-2-1,20.0,5.6,-3.0,11.0,-5.9,-12.0,66,58,50,0.00,40.00,22,10,27,0.00
2013-2-2,25.0,19.1,14.0,20.0,10.5,5.0,81,69,56,0.00,40.00,19,10,25,0.04
2013-2-3,25.0,20.4,16.0,17.0,11.2,7.0,84,67,49,0.00,40.00,23,11,31,0.07
2013-2-4,27.0,22.9,15.0,19.0,14.4,9.0,79,69,57,0.00,40.00,19,8,23,0.00
2013-2-5,36.0,27.9,15.0,27.0,20.6,9.0,81,74,64,0.00,40.00,19,10,26,0.00
2013-2-6,44.0,33.5,21.0,30.0,24.7,17.0,85,70,57,0.00,40.00,17,8,24,0.51
2013-2-7,39.0,35.7,32.0,34.0,32.2,28.0,88,86,71,0.00,40.00,16,8,24,5.73
2013-2-8,32.0,28.5,27.0,28.0,21.5,19.0,85,74,69,0.00,40.00,20,9,24,0.00
2013-2-9,36.0,29.9,26.0,28.0,23.6,20.0,85,77,63,0.00,40.00,25,11,34,0.00
2013-2-10,50.0,40.7,32.0,45.0,35.3,28.0,88,81,55,0.00,40.00,35,18,46,0.39
2013-2-11,36.0,31.8,28.0,29.0,21.2,18.0,72,64,58,0.00,40.00,37,25,50,0.00
2013-2-12,38.0,30.5,25.0,25.0,20.2,16.0,78,65,51,0.00,40.00,18,10,22,0.00
2013-2-13,43.0,35.2,27.0,30.0,26.7,23.0,84,71,55,0.00,40.00,16,8,19,0.00
2013-2-14,41.0,36.6,30.0,31.0,27.6,23.0,85,70,49,0.00,40.00,23,14,32,0.00
2013-2-15,30.0,24.3,18.0,25.0,10.8,5.0,82,56,35,0.00,40.00,20,14,26,0.00
2013-2-16,24.0,18.1,12.0,12.0,8.9,5.0,76,66,54,0.00,40.00,16,9,24,0.00
2013-2-17,36.0,25.4,14.0,21.0,13.1,7.0,79,60,42,0.00,40.00,21,12,28,0.00
2013-2-18,56.0,36.8,18.0,42.0,28.0,9.0,89,71,46,0.00,40.00,32,18,41,1.61
2013-2-19,20.0,13.2,6.0,9.0,2.5,-3.0,69,61,51,0.00,40.00,34,23,42,0.00
2013-2-20,24.0,13.9,4.0,10.0,3.4,-5.0,74,63,53,0.00,40.00,14,7,21,0.00
2013-2-21,28.0,21.2,13.0,24.0,15.7,7.0,89,79,69,0.00,40.00,27,13,37,0.00
2013-2-22,34.0,27.3,23.0,31.0,22.7,18.0,89,83,70,0.00,40.00,19,12,27,6.64
2013-2-23,31.0,24.4,18.0,19.0,16.1,12.0,80,70,56,0.00,40.00,16,10,21,3.56
2013-2-24,38.0,25.4,11.0,22.0,16.5,8.0,85,71,44,0.00,40.00,7,4,9,11.96
2013-2-25,40.0,31.6,22.0,29.0,24.3,19.0,87,75,53,0.00,40.00,18,7,23,2.16
2013-2-26,35.0,32.4,30.0,29.0,27.1,26.0,89,81,68,0.00,40.00,26,19,37,0.52
2013-2-27,33.0,30.8,29.0,30.0,27.6,26.0,88,87,86,0.00,40.00,20,14,24,0.63
2013-2-28,35.0,32.3,29.0,29.0,27.3,26.0,88,81,71,0.00,40.00,17,10,20,0.42
2013-3-1,29.0,26.4,22.0,27.0,19.1,15.0,88,73,59,0.00,40.00,19,11,24,0.01
2013-3-2,29.0,19.9,12.0,17.0,10.6,5.0,80,67,49,0.00,40.00,10,7,14,0.00
2013-3-3,31.0,20.6,7.0,15.0,9.1,3.0,83,62,40,0.00,40.00,9,4,13,0.00
2013-3-4,34.0,28.9,25.0,26.0,20.1,11.0,84,69,55,0.00,40.00,24,13,31,0.03
2013-3-5,31.0,29.6,28.0,27.0,25.4,22.0,88,83,76,0.00,40.00,22,13,27,0.74
2013-3-6,30.0,25.8,20.0,22.0,18.6,16.0,82,74,65,0.00,40.00,19,10,22,0.00
2013-3-7,36.0,25.7,16.0,22.0,18.2,12.0,83,73,53,0.00,40.00,10,4,14,0.00
2013-3-8,41.0,32.1,22.0,31.0,24.6,18.0,86,74,57,0.00,40.00,16,10,24,0.00
2013-3-9,43.0,38.2,35.0,40.0,34.3,30.0,88,85,76,0.00,40.00,21,13,27,2.14
2013-3-10,46.0,41.3,36.0,43.0,38.1,33.0,88,88,87,0.00,40.00,23,7,31,2.14
2013-3-11,36.0,33.0,29.0,33.0,28.4,19.0,88,83,63,0.00,40.00,22,12,30,0.38
2013-3-12,34.0,29.1,25.0,28.0,20.7,14.0,84,70,54,0.00,40.00,26,17,35,0.42
2013-3-13,34.0,27.1,21.0,19.0,13.2,8.0,74,57,34,0.00,40.00,21,14,27,0.00
2013-3-14,47.0,34.1,24.0,29.0,21.9,17.0,78,62,40,0.00,40.00,18,7,23,0.00
2013-3-15,46.0,37.4,31.0,33.0,30.0,27.0,87,75,53,0.00,40.00,12,6,17,0.00
2013-3-16,37.0,33.7,30.0,32.0,27.4,22.0,89,78,57,0.00,40.00,13,9,18,0.00
2013-3-17,36.0,31.2,26.0,25.0,19.4,13.0,73,61,50,0.00,40.00,19,13,24,0.00
2013-3-18,35.0,29.6,21.0,32.0,22.5,8.0,87,75,55,0.00,40.00,33,15,43,2.90
2013-3-19,33.0,23.6,15.0,16.0,8.7,4.0,64,53,37,0.00,40.00,24,18,34,0.00
2013-3-20,27.0,19.3,13.0,16.0,5.3,2.0,70,54,42,0.00,40.00,26,20,34,0.00
2013-3-21,32.0,21.6,10.0,15.0,7.7,4.0,74,56,36,0.00,40.00,12,5,17,0.00
2013-3-22,42.0,29.6,18.0,22.0,16.1,12.0,84,60,30,0.00,40.00,7,4,11,0.00
2013-3-23,42.0,34.3,26.0,25.0,18.7,13.0,84,55,30,0.00,40.00,12,6,18,0.00
2013-3-24,34.0,30.0,28.0,28.0,26.5,21.0,89,86,60,0.00,40.00,21,14,26,5.16
2013-3-25,36.0,31.5,28.0,26.0,22.0,17.0,89,68,55,0.00,40.00,21,-1,26,0.00
2013-3-26,40.0,33.6,25.0,24.0,22.0,19.0,81,63,45,0.00,40.00,18,10,22,0.00
2013-3-27,46.0,36.8,29.0,27.0,21.3,16.0,83,56,30,0.00,40.00,8,4,12,0.00
2013-3-28,54.0,40.7,28.0,30.0,24.9,20.0,81,56,28,0.00,40.00,9,3,12,0.00
2013-3-29,56.0,45.8,33.0,33.0,28.4,26.0,82,53,32,0.00,40.00,9,4,12,0.00
2013-3-30,56.0,46.5,38.0,43.0,34.9,-99.9,86,67,50,0.00,40.00,19,11,26,0.20
2013-3-31,53.0,44.6,34.0,43.0,33.1,20.0,88,66,34,0.00,40.00,24,13,31,0.00
2013-4-1,39.0,32.3,26.0,22.0,17.4,13.0,78,55,36,0.00,40.00,19,13,26,0.00
2013-4-2,44.0,32.4,21.0,23.0,16.3,9.0,83,55,24,0.00,40.00,20,9,27,0.00
2013-4-3,48.0,36.1,22.0,23.0,14.8,10.0,80,46,23,0.00,40.00,11,5,15,0.00
2013-4-4,62.0,44.3,33.0,37.0,22.9,10.0,78,44,26,0.00,40.00,14,8,21,0.00
2013-4-5,56.0,44.7,31.0,35.0,25.0,19.0,82,50,24,0.00,40.00,20,8,29,0.00
2013-4-6,69.0,54.0,41.0,51.0,33.1,18.0,82,46,31,0.00,40.00,29,17,38,0.03
2013-4-7,64.0,51.3,38.0,45.0,38.2,34.0,87,63,36,0.00,40.00,19,8,27,0.00
2013-4-8,73.0,60.3,48.0,57.0,47.5,39.0,88,65,40,0.00,40.00,20,10,29,0.47
2013-4-9,76.0,54.9,43.0,59.0,49.4,39.0,87,82,55,0.00,40.00,22,13,30,0.15
2013-4-10,43.0,40.1,37.0,40.0,37.0,34.0,89,88,87,0.00,40.00,32,15,45,1.76
2013-4-11,48.0,41.7,37.0,44.0,38.2,31.0,88,87,78,0.00,40.00,22,12,29,0.00
2013-4-12,41.0,38.0,36.0,35.0,30.5,27.0,87,74,59,0.00,40.00,26,14,29,0.00
2013-4-13,50.0,41.0,34.0,33.0,27.1,21.0,80,59,40,0.00,40.00,21,12,28,0.00
2013-4-14,75.0,55.8,40.0,53.0,39.2,32.0,87,57,31,0.00,40.00,23,15,42,0.18
2013-4-15,62.0,50.6,41.0,52.0,41.0,30.0,87,72,33,0.00,40.00,23,9,27,0.21
2013-4-16,52.0,43.9,35.0,37.0,31.5,27.0,85,63,43,0.00,40.00,12,6,16,0.00
2013-4-17,51.0,44.8,41.0,47.0,39.3,32.0,89,81,62,0.00,40.00,26,14,34,2.07
2013-4-18,62.0,51.4,37.0,58.0,46.8,28.0,88,84,69,0.00,40.00,34,17,43,1.18
2013-4-19,39.0,36.0,34.0,29.0,25.5,22.0,77,65,53,0.00,40.00,29,22,39,0.46
2013-4-20,48.0,38.4,29.0,28.0,22.3,16.0,83,55,30,0.00,40.00,12,6,17,0.00
2013-4-21,59.0,46.9,37.0,36.0,28.7,23.0,57,49,40,0.00,40.00,24,15,35,0.00
2013-4-22,68.0,63.8,53.0,46.0,34.2,32.0,79,34,26,0.00,40.00,19,12,28,0.03
2013-4-23,53.0,42.1,38.0,48.0,36.9,30.0,87,81,68,0.00,40.00,22,12,27,1.66
2013-4-24,54.0,43.0,34.0,31.0,25.2,20.0,74,52,26,0.00,40.00,17,11,23,0.00
2013-4-25,56.0,45.6,35.0,38.0,23.2,14.0,85,45,19,0.00,40.00,21,13,32,0.00
2013-4-26,69.0,56.2,44.0,45.0,36.8,25.0,67,48,35,0.00,40.00,24,14,35,0.00
2013-4-27,65.0,56.7,46.0,46.0,41.9,37.0,87,60,38,0.00,40.00,12,6,21,0.00
2013-4-28,74.0,62.4,47.0,50.0,42.7,38.0,87,53,28,0.00,40.00,10,5,16,0.00
2013-4-29,80.0,65.7,51.0,57.0,50.3,47.0,86,60,38,0.00,40.00,21,12,31,0.00
2013-4-30,88.0,75.1,65.0,58.0,51.1,43.0,76,48,22,0.00,40.00,28,14,35,0.00
2013-5-1,84.0,71.5,56.0,55.0,49.9,43.0,74,49,26,0.00,40.00,22,10,34,0.00
2013-5-2,56.0,45.9,38.0,44.0,39.7,36.0,91,79,63,0.00,40.00,24,17,30,0.77
2013-5-3,51.0,40.7,36.0,48.0,37.7,33.0,90,88,87,0.00,40.00,21,14,26,4.88
2013-5-4,69.0,58.7,51.0,58.0,52.2,48.0,88,79,49,0.00,40.00,17,9,24,0.61
2013-5-5,74.0,61.4,51.0,56.0,47.4,42.0,88,64,33,0.00,40.00,15,7,19,0.00
2013-5-6,75.0,63.8,51.0,51.0,45.0,40.0,83,54,28,0.00,40.00,14,6,19,0.00
2013-5-7,79.0,68.2,55.0,51.0,43.4,38.0,80,44,24,0.00,40.00,9,3,15,0.00
2013-5-8,82.0,69.8,57.0,56.0,47.6,44.0,73,48,28,0.00,40.00,10,-10,20,0.03
2013-5-9,71.0,64.0,60.0,61.0,57.6,55.0,87,80,58,0.00,40.00,14,7,21,0.57
2013-5-10,60.0,51.7,47.0,56.0,44.1,-99.9,87,79,67,0.00,40.00,21,2,26,0.08
2013-5-11,56.0,50.5,42.0,48.0,29.8,-99.9,87,52,23,0.00,40.00,32,16,42,0.04
2013-5-12,58.0,46.8,35.0,29.0,23.3,18.0,73,43,21,0.00,40.00,20,11,32,0.00
2013-5-13,71.0,57.1,39.0,38.0,30.3,25.0,59,38,20,0.00,40.00,12,5,19,0.00
2013-5-14,93.0,74.9,57.0,57.0,49.7,36.0,64,42,24,0.00,40.00,19,11,27,0.00
2013-5-15,83.0,74.5,63.0,51.0,46.4,41.0,56,37,24,0.00,40.00,25,9,35,0.00
2013-5-16,84.0,67.4,57.0,53.0,30.0,-99.9,66,43,24,0.00,40.00,12,5,25,0.00
2013-5-17,83.0,72.3,64.0,62.0,51.7,-99.9,81,57,32,0.00,40.00,15,7,24,0.00
2013-5-18,82.0,72.5,62.0,63.0,58.4,54.0,87,63,40,0.00,40.00,12,7,19,0.00
2013-5-19,86.0,73.7,67.0,71.0,61.7,49.0,87,67,35,0.00,40.00,25,12,40,0.51
2013-5-20,82.0,71.5,63.0,60.0,57.8,53.0,87,63,42,0.00,40.00,32,11,47,0.05
2013-5-21,77.0,69.7,62.0,62.0,54.8,49.0,87,61,39,0.00,40.00,16,10,24,0.00
2013-5-22,69.0,62.7,59.0,55.0,52.8,48.0,84,71,48,0.00,40.00,18,8,25,0.01
2013-5-23,67.0,58.8,52.0,54.0,46.1,37.0,88,65,34,0.00,40.00,21,12,29,0.46
2013-5-24,68.0,56.2,42.0,42.0,33.3,29.0,85,45,23,0.00,40.00,11,6,17,0.00
2013-5-25,58.0,51.2,47.0,48.0,44.1,36.0,88,77,42,0.00,40.00,17,8,24,1.25
2013-5-26,58.0,52.8,49.0,55.0,48.4,43.0,88,84,76,0.00,40.00,19,10,25,2.41
2013-5-27,71.0,63.1,56.0,63.0,58.3,53.0,88,84,71,0.00,40.00,18,9,27,2.96
2013-5-28,81.0,70.7,64.0,70.0,64.1,60.0,87,80,68,0.00,40.00,19,9,32,0.40
2013-5-29,83.0,73.3,63.0,67.0,61.5,57.0,85,67,48,0.00,40.00,21,10,28,0.11
2013-5-30,83.0,72.1,63.0,68.0,62.4,59.0,87,72,53,0.00,40.00,29,14,37,0.10
2013-5-31,75.0,68.4,63.0,66.0,60.2,52.0,87,75,49,0.00,40.00,31,10,43,0.03
2013-6-1,77.0,69.3,63.0,65.0,58.9,50.0,87,71,40,0.00,40.00,20,9,29,0.00
2013-6-2,63.0,58.9,53.0,58.0,46.2,39.0,85,64,45,0.00,40.00,17,10,24,0.00
2013-6-3,70.0,61.2,50.0,48.0,43.2,39.0,82,54,33,0.00,40.00,8,4,14,0.00
2013-6-4,72.0,64.0,53.0,53.0,45.8,43.0,75,53,37,0.00,40.00,24,7,32,0.07
2013-6-5,66.0,62.6,58.0,60.0,54.8,50.0,88,76,64,0.00,40.00,12,6,21,0.15
2013-6-6,67.0,60.2,56.0,56.0,54.0,52.0,87,80,65,0.00,40.00,10,5,16,0.09
2013-6-7,72.0,63.3,57.0,55.0,50.0,45.0,85,64,40,0.00,40.00,12,5,17,0.00
2013-6-8,77.0,67.4,57.0,53.0,49.4,46.0,75,53,37,0.00,40.00,10,5,14,0.00
2013-6-9,74.0,67.4,63.0,64.0,57.4,48.0,87,70,49,0.00,40.00,15,8,22,0.07
2013-6-10,78.0,66.8,57.0,62.0,56.6,53.0,88,72,43,0.00,40.00,12,4,17,0.00
2013-6-11,86.0,74.9,62.0,67.0,61.4,57.0,86,64,40,0.00,40.00,10,4,16,0.00
2013-6-12,92.0,80.4,71.0,69.0,66.7,63.0,85,65,43,0.00,40.00,25,11,35,0.00
2013-6-13,81.0,71.3,63.0,65.0,54.5,46.0,87,59,29,0.00,40.00,22,2,32,0.11
2013-6-14,80.0,70.4,60.0,57.0,53.6,52.0,81,57,39,0.00,40.00,13,6,21,0.00
2013-6-15,83.0,73.9,67.0,70.0,62.8,56.0,83,69,50,0.00,40.00,26,6,36,0.04
2013-6-16,86.0,74.2,65.0,65.0,60.0,50.0,87,64,31,0.00,40.00,13,6,19,0.00
2013-6-17,89.0,77.5,65.0,64.0,56.3,47.0,87,53,24,0.00,40.00,13,5,20,0.00
2013-6-18,80.0,71.4,61.0,63.0,54.4,52.0,78,56,39,0.00,40.00,17,8,22,0.00
2013-6-19,85.0,71.3,56.0,56.0,51.6,47.0,74,51,35,0.00,40.00,9,4,14,0.00
2013-6-20,89.0,75.7,64.0,59.0,56.9,54.0,74,54,33,0.00,40.00,13,8,21,0.00
2013-6-22,93.0,83.5,71.0,71.0,67.4,62.0,75,59,40,0.00,40.00,18,10,24,0.04
2013-6-23,76.0,72.4,70.0,67.0,64.0,62.0,78,75,69,0.00,40.00,15,7,20,0.00
2013-6-24,76.0,69.9,66.0,69.0,64.7,62.0,87,83,66,0.00,40.00,19,7,27,2.11
2013-6-25,83.0,79.8,77.0,71.0,70.7,69.0,80,74,67,0.00,40.00,9,4,13,0.00
2013-6-26,87.0,78.1,67.0,73.0,68.5,63.0,87,73,54,0.00,40.00,15,5,21,1.64
2013-6-27,87.0,80.0,70.0,72.0,65.8,61.0,85,63,46,0.00,40.00,21,10,30,0.00
2013-6-28,83.0,74.3,66.0,63.0,58.2,53.0,82,59,38,0.00,40.00,24,12,34,0.00
2013-6-29,73.0,67.0,64.0,64.0,60.5,59.0,88,79,61,0.00,40.00,18,10,27,0.17
2013-6-30,78.0,69.3,62.0,59.0,55.9,51.0,85,64,42,0.00,40.00,15,9,21,0.00
2013-7-1,78.0,68.0,56.0,55.0,49.9,45.0,84,56,31,0.00,40.00,16,9,27,0.00
2013-7-2,78.0,68.1,58.0,57.0,51.9,47.0,84,59,35,0.00,40.00,11,5,20,0.00
2013-7-3,79.0,67.4,55.0,55.0,50.0,44.0,86,56,32,0.00,40.00,7,3,11,0.00
2013-7-4,87.0,75.2,61.0,62.0,56.2,52.0,76,53,34,0.00,40.00,10,4,15,0.00
2013-7-5,87.0,76.8,66.0,62.0,59.4,56.0,82,57,37,0.00,40.00,13,7,19,0.00
2013-7-6,89.0,76.8,67.0,66.0,62.6,59.0,85,63,39,0.00,40.00,11,6,16,0.00
2013-7-7,91.0,80.8,70.0,69.0,66.4,65.0,84,63,44,0.00,40.00,9,5,15,0.00
2013-7-8,89.0,79.8,72.0,73.0,69.5,67.0,86,71,54,0.00,40.00,17,8,27,0.00
2013-7-9,89.0,80.0,73.0,77.0,73.1,69.0,87,79,63,0.00,40.00,24,5,32,0.65
2013-7-10,82.0,75.2,67.0,76.0,60.1,-99.9,87,64,41,0.00,40.00,15,8,22,0.00
2013-7-11,80.0,71.2,60.0,61.0,54.7,49.0,87,59,35,0.00,40.00,11,4,16,0.00
2013-7-12,84.0,73.3,61.0,58.0,54.3,49.0,83,55,31,0.00,40.00,7,4,12,0.00
2013-7-13,83.0,73.4,62.0,62.0,58.1,55.0,79,60,41,0.00,40.00,11,5,16,0.00
2013-7-14,88.0,78.2,65.0,69.0,62.4,59.0,86,60,38,0.00,40.00,12,6,17,0.00
2013-7-15,92.0,80.6,70.0,72.0,68.9,66.0,87,69,44,0.00,40.00,10,5,14,0.00
2013-7-16,93.0,84.6,74.0,74.0,71.3,69.0,86,66,46,0.00,40.00,8,4,10,0.00
2013-7-17,96.0,85.2,74.0,73.0,70.6,68.0,85,64,41,0.00,40.00,7,4,11,0.00
2013-7-18,95.0,84.9,75.0,74.0,71.0,68.0,85,65,42,0.00,40.00,10,5,16,0.00
2013-7-19,96.0,86.0,76.0,72.0,68.9,65.0,83,59,40,0.00,40.00,16,10,26,0.00
2013-7-20,88.0,77.7,66.0,65.0,58.4,-99.9,87,54,38,0.00,40.00,9,3,17,0.00
2013-7-21,86.0,75.8,67.0,71.0,64.2,60.0,84,68,48,0.00,40.00,12,5,17,0.00
2013-7-22,89.0,76.5,65.0,73.0,66.5,61.0,87,73,47,0.00,40.00,17,4,27,0.35
2013-7-23,75.0,69.8,63.0,64.0,58.9,52.0,87,70,44,0.00,40.00,14,7,20,0.00
2013-7-24,77.0,67.5,57.0,57.0,52.3,48.0,86,61,38,0.00,40.00,8,3,11,0.00
2013-7-25,84.0,71.5,58.0,60.0,56.9,53.0,85,62,42,0.00,40.00,9,4,15,0.03
2013-7-26,82.0,68.6,62.0,68.0,60.6,51.0,87,76,42,0.00,40.00,19,7,25,0.45
2013-7-27,66.0,60.0,54.0,55.0,47.2,41.0,85,64,42,0.00,40.00,16,9,23,0.00
2013-7-28,72.0,62.1,53.0,52.0,48.0,44.0,83,61,40,0.00,40.00,14,8,19,0.00
2013-7-29,80.0,65.3,50.0,56.0,50.3,47.0,87,62,35,0.00,40.00,6,3,9,0.00
2013-7-30,67.0,65.9,63.0,63.0,59.7,54.0,87,81,64,0.00,40.00,9,5,13,0.23
2013-7-31,82.0,71.3,65.0,64.0,61.7,60.0,87,73,48,0.00,40.00,10,5,16,0.00
2013-8-1,83.0,71.1,60.0,61.0,57.0,49.0,87,64,31,0.00,40.00,10,5,14,0.00
2013-8-2,86.0,74.9,67.0,65.0,62.6,60.0,83,67,44,0.00,40.00,10,6,16,0.21
2013-8-3,79.0,70.1,59.0,61.0,54.4,49.0,87,61,35,0.00,40.00,9,5,14,0.03
2013-8-4,83.0,69.5,54.0,56.0,51.9,45.0,87,57,28,0.00,40.00,7,3,11,0.04
2013-8-5,74.0,66.3,61.0,66.0,59.0,54.0,88,77,62,0.00,40.00,17,8,24,0.09
2013-8-6,84.0,75.5,68.0,73.0,68.8,64.0,87,80,63,0.00,40.00,6,4,12,0.00
2013-8-7,84.0,76.4,65.0,72.0,65.4,60.0,86,70,47,0.00,40.00,13,6,18,0.00
2013-8-8,80.0,70.1,60.0,63.0,58.7,56.0,87,69,45,0.00,40.00,9,4,14,0.00
2013-8-9,83.0,72.7,63.0,67.0,61.6,59.0,86,69,47,0.00,40.00,8,4,14,0.00
2013-8-10,80.0,69.2,58.0,59.0,54.5,48.0,85,62,34,0.00,40.00,11,-4,16,0.00
2013-8-11,85.0,72.8,61.0,64.0,59.9,56.0,84,66,44,0.00,40.00,10,4,17,0.03
2013-8-17,81.0,68.0,54.0,58.0,48.8,-99.9,88,56,33,0.00,40.00,8,4,14,0.00
2013-8-18,83.0,72.9,55.0,60.0,54.9,51.0,87,56,33,0.00,40.00,7,3,12,0.00
2013-8-19,85.0,67.4,63.0,64.0,44.7,-99.9,84,64,43,0.00,40.00,7,4,12,0.00
2013-8-20,88.0,76.8,67.0,65.0,58.9,-99.9,83,60,40,0.00,40.00,7,5,15,0.00
2013-8-21,90.0,80.7,69.0,68.0,66.1,64.0,83,62,46,0.00,40.00,9,6,16,0.00
2013-8-22,79.0,73.4,68.0,68.0,65.9,64.0,87,77,63,0.00,40.00,12,6,24,0.00
2013-8-23,84.0,73.6,62.0,67.0,59.6,55.0,87,64,39,0.00,40.00,9,6,14,0.00
2013-8-25,76.0,75.2,74.0,65.0,65.0,65.0,71,69,68,0.00,40.00,6,6,13,0.00
2013-8-26,92.0,80.9,69.0,72.0,67.4,63.0,82,65,46,0.00,40.00,9,5,15,0.00
2013-10-4,79.0,71.6,66.0,67.0,63.5,61.0,87,76,59,0.00,40.00,12,6,19,0.08
2013-10-5,74.0,66.4,50.0,68.0,57.1,40.0,86,72,54,0.00,40.00,13,6,20,0.04
2013-10-6,52.0,47.7,42.0,42.0,37.7,31.0,87,69,45,0.00,40.00,14,7,19,0.17
2013-10-7,73.0,52.6,42.0,47.0,41.7,37.0,88,69,26,0.00,40.00,17,8,23,0.00
2013-10-8,79.0,63.2,47.0,47.0,40.7,36.0,84,49,21,0.00,40.00,11,7,17,0.00
2013-10-9,76.0,65.6,51.0,48.0,41.2,35.0,82,45,24,0.00,40.00,11,6,18,0.00
2013-10-10,78.0,65.0,47.0,50.0,46.7,41.0,85,54,34,0.00,40.00,12,6,17,0.00
2013-10-13,65.0,54.4,39.0,38.0,29.9,26.0,78,42,23,0.00,40.00,12,5,16,0.00
2013-10-14,65.0,54.9,39.0,42.0,35.3,31.0,82,49,34,0.00,40.00,15,9,22,0.03
2013-10-15,67.0,57.5,50.0,60.0,45.2,33.0,87,65,39,0.00,40.00,19,12,27,0.25
2013-10-16,53.0,50.1,48.0,44.0,41.4,39.0,85,71,63,0.00,40.00,19,12,26,0.00
2013-10-17,62.0,52.4,47.0,44.0,37.1,27.0,87,61,26,0.00,40.00,16,7,23,0.00
2013-10-18,51.0,46.7,42.0,41.0,33.5,31.0,85,60,46,0.00,40.00,16,11,24,0.00
2013-10-19,56.0,44.2,35.0,38.0,27.2,-99.9,81,57,32,0.00,40.00,21,10,32,0.04
2013-10-20,61.0,51.0,37.0,44.0,36.9,32.0,85,61,39,0.00,40.00,18,8,24,0.00
2013-10-21,49.0,42.6,36.0,39.0,25.0,18.0,73,51,34,0.00,40.00,21,12,29,0.00
2013-10-22,36.0,34.0,29.0,34.0,30.9,24.0,89,87,78,0.00,40.00,9,6,14,1.14
2013-10-23,43.0,37.8,30.0,33.0,26.2,19.0,84,64,39,0.00,40.00,14,9,19,0.00
2013-10-24,40.0,35.9,29.0,22.0,18.5,16.0,64,49,40,0.00,40.00,19,12,24,0.00
2013-10-25,55.0,40.7,26.0,30.0,21.6,16.0,83,52,23,0.00,40.00,17,10,26,0.00
2013-10-26,53.0,44.6,35.0,32.0,22.1,-99.9,67,44,33,0.00,40.00,23,15,30,0.00
2013-10-27,58.0,43.2,27.0,26.0,24.4,23.0,85,53,26,0.00,40.00,13,7,20,0.00
2013-10-28,58.0,46.8,33.0,38.0,33.5,27.0,80,60,45,0.00,40.00,17,11,26,0.00
2013-11-10,49.0,37.3,29.0,29.0,26.5,24.0,83,66,40,0.00,40.00,15,8,20,0.00
2013-11-11,46.0,35.9,21.0,32.0,24.4,13.0,88,63,51,0.00,40.00,22,12,26,0.50
2013-11-12,29.0,21.8,16.0,13.0,10.6,9.0,73,62,44,0.00,40.00,13,8,17,0.00
2013-11-13,45.0,30.9,17.0,14.0,11.4,9.0,76,48,25,0.00,40.00,17,11,27,0.00
2013-11-14,52.0,41.3,34.0,24.0,18.6,13.0,48,39,31,0.00,40.00,19,12,24,0.00
2013-11-15,57.0,44.2,36.0,33.0,26.0,21.0,65,49,33,0.00,40.00,12,9,17,0.00
2013-11-16,61.0,51.1,42.0,53.0,41.4,-99.9,86,76,66,0.00,40.00,20,14,36,0.00
2013-11-17,66.0,53.9,42.0,59.0,47.8,35.0,87,79,66,0.00,40.00,26,16,37,0.00
2013-11-18,44.0,37.9,29.0,35.0,27.5,22.0,84,66,44,0.00,40.00,22,13,29,0.00
2013-11-19,45.0,33.0,25.0,26.0,22.4,20.0,85,67,37,0.00,40.00,14,7,20,0.00
2013-11-20,39.0,37.1,35.0,35.0,31.0,26.0,89,78,61,0.00,40.00,15,11,24,0.68
2013-11-21,42.0,40.5,39.0,39.0,36.6,35.0,88,86,83,0.00,40.00,12,6,17,0.15
2013-11-22,39.0,31.4,21.0,35.0,25.5,15.0,88,79,57,0.00,40.00,20,12,26,0.88
2013-11-23,22.0,18.1,10.0,15.0,4.8,-99.9,80,62,40,0.00,40.00,21,11,27,0.00
2013-11-24,27.0,17.2,7.0,8.0,3.3,-1.0,77,56,28,0.00,40.00,10,6,17,0.00
2013-11-25,35.0,29.8,21.0,24.0,17.3,7.0,72,59,47,0.00,40.00,17,11,24,0.07
2013-11-26,31.0,24.3,14.0,24.0,13.3,2.0,84,63,38,0.00,40.00,24,12,32,0.00
2013-11-27,28.0,18.4,9.0,7.0,4.8,2.0,70,55,36,0.00,40.00,11,8,17,0.00
2013-11-28,33.0,25.2,19.0,14.0,11.3,7.0,77,55,43,0.00,40.00,12,8,20,0.00
2013-11-29,36.0,25.5,15.0,19.0,13.6,11.0,85,63,37,0.00,40.00,12,7,16,0.00
2013-11-30,51.0,36.6,31.0,27.0,20.2,-99.9,78,57,38,0.00,40.00,14,9,19,0.00
2013-12-7,16.0,8.8,1.0,-1.0,-7.6,-99.9,71,53,38,0.00,40.00,11,6,16,0.00
2013-12-8,21.0,18.6,11.0,18.0,12.1,0.0,86,75,53,0.00,40.00,17,9,22,0.05
2013-12-9,20.0,8.7,-6.0,17.0,1.2,-15.0,86,71,53,0.00,40.00,20,13,28,0.00
2013-12-10,20.0,13.6,-3.0,6.0,1.1,-10.0,70,57,48,0.00,40.00,24,12,33,0.00
2013-12-11,18.0,7.2,-5.0,12.0,-2.7,-15.0,83,63,51,0.00,40.00,19,9,24,0.05
2013-12-12,23.0,12.3,-3.0,9.0,2.2,-11.0,74,63,54,0.00,40.00,18,7,26,0.00
2013-12-13,27.0,22.0,14.0,24.0,15.2,8.0,87,75,62,0.00,40.00,13,9,19,0.00
2013-12-14,26.0,22.8,16.0,22.0,14.9,-99.9,87,79,73,0.00,40.00,16,12,21,0.00
2013-12-15,15.0,12.3,8.0,8.0,3.2,-1.0,78,66,53,0.00,40.00,18,9,24,0.08
2013-12-16,21.0,17.4,12.0,18.0,12.0,7.0,85,78,69,0.00,40.00,9,7,12,0.00
2013-12-17,35.0,25.5,15.0,24.0,15.8,9.0,85,67,51,0.00,40.00,23,14,30,14.53
2013-12-18,39.0,29.2,12.0,27.0,16.1,6.0,77,59,32,0.00,40.00,20,10,32,29.01
2013-12-19,36.0,34.3,30.0,31.0,29.3,26.0,89,82,73,0.00,40.00,12,7,17,42.68
2013-12-20,33.0,28.4,26.0,30.0,25.5,23.0,89,88,88,0.00,40.00,17,8,22,9.50
2013-12-21,29.0,26.5,26.0,26.0,21.2,-99.9,88,85,86,0.00,40.00,15,8,21,0.00
2013-12-22,29.0,23.9,15.0,26.0,19.6,10.0,88,83,78,0.00,40.00,17,13,22,5.31
2013-12-23,11.0,0.9,-6.0,6.0,-6.0,-13.0,79,72,61,0.00,40.00,17,12,22,0.00
2013-12-24,18.0,1.7,-13.0,11.0,-6.1,-19.0,78,69,54,0.00,40.00,12,6,16,0.00
2013-12-25,26.0,22.5,18.0,22.0,17.0,9.0,85,79,66,0.00,40.00,16,12,21,0.00
2013-12-26,36.0,23.7,9.0,24.0,16.7,6.0,84,75,57,0.00,40.00,14,8,21,9.76
2013-12-27,39.0,29.8,18.0,29.0,22.7,15.0,87,75,57,0.00,40.00,15,8,26,0.00
2013-12-28,46.0,37.9,33.0,31.0,25.0,-99.9,83,65,51,0.00,40.00,17,11,21,0.00
2013-12-29,40.0,21.2,-2.0,29.0,14.7,-11.0,88,75,63,0.00,40.00,26,17,34,0.00
2013-12-30,10.0,3.0,-7.0,4.0,-5.1,-15.0,81,68,49,0.00,40.00,11,3,14,0.12
2013-12-31,12.0,5.3,-7.0,8.0,0.6,-11.0,83,80,78,0.00,40.00,15,6,20,0.00
2014-1-1,14.0,10.5,7.0,11.0,5.6,3.0,84,79,76,0.00,40.00,19,13,24,0.01
2014-1-2,12.0,7.2,-5.0,4.0,0.1,-11.0,75,71,67,0.00,40.00,16,11,21,0.00